sensor_id;sensor_type;location;lat;lon;timestamp;P1;durP1;ratioP1;P2;durP2;ratioP2
18544;SDS011;9402;51.460;7.276;2023-06-26T00:01:43;9.53;;;7.07;;
18544;SDS011;9402;51.460;7.276;2023-06-26T00:03:45;6.87;;;6.10;;
18544;SDS011;9402;51.460;7.276;2023-06-26T00:05:47;7.70;;;6.83;;
18544;SDS011;9402;51.460;7.276;2023-06-26T00:07:48;7.53;;;6.00;;
18544;SDS011;9402;51.460;7.276;2023-06-26T00:09:51;9.40;;;6.60;;
18544;SDS011;9402;51.460;7.276;2023-06-26T00:13:58;11.30;;;6.03;;
18544;SDS011;9402;51.460;7.276;2023-06-26T00:16:00;12.83;;;6.37;;
18544;SDS011;9402;51.460;7.276;2023-06-26T00:18:03;6.90;;;6.20;;
18544;SDS011;9402;51.460;7.276;2023-06-26T00:20:05;6.63;;;5.40;;
18544;SDS011;9402;51.460;7.276;2023-06-26T00:22:08;7.80;;;5.77;;
18544;SDS011;9402;51.460;7.276;2023-06-26T00:24:09;7.70;;;6.50;;
18544;SDS011;9402;51.460;7.276;2023-06-26T00:26:12;9.43;;;5.63;;
18544;SDS011;9402;51.460;7.276;2023-06-26T00:28:14;9.00;;;5.90;;
18544;SDS011;9402;51.460;7.276;2023-06-26T00:30:15;10.90;;;5.77;;
18544;SDS011;9402;51.460;7.276;2023-06-26T00:32:17;6.57;;;5.70;;
18544;SDS011;9402;51.460;7.276;2023-06-26T00:34:18;8.87;;;6.20;;
18544;SDS011;9402;51.460;7.276;2023-06-26T00:36:20;7.97;;;5.43;;
18544;SDS011;9402;51.460;7.276;2023-06-26T00:38:22;6.30;;;5.70;;
18544;SDS011;9402;51.460;7.276;2023-06-26T00:40:24;10.00;;;6.50;;
18544;SDS011;9402;51.460;7.276;2023-06-26T00:42:28;8.80;;;6.23;;
18544;SDS011;9402;51.460;7.276;2023-06-26T00:44:30;7.67;;;5.67;;
18544;SDS011;9402;51.460;7.276;2023-06-26T00:46:31;6.77;;;5.57;;
18544;SDS011;9402;51.460;7.276;2023-06-26T00:48:33;6.37;;;5.60;;
18544;SDS011;9402;51.460;7.276;2023-06-26T00:50:35;7.10;;;5.67;;
18544;SDS011;9402;51.460;7.276;2023-06-26T00:52:36;7.00;;;6.30;;
18544;SDS011;9402;51.460;7.276;2023-06-26T00:54:38;7.90;;;5.83;;
18544;SDS011;9402;51.460;7.276;2023-06-26T00:56:40;6.23;;;5.23;;
18544;SDS011;9402;51.460;7.276;2023-06-26T00:58:43;7.70;;;6.43;;
18544;SDS011;9402;51.460;7.276;2023-06-26T01:00:45;8.60;;;5.70;;
18544;SDS011;9402;51.460;7.276;2023-06-26T01:02:47;8.00;;;6.40;;
18544;SDS011;9402;51.460;7.276;2023-06-26T01:04:48;8.13;;;6.30;;
18544;SDS011;9402;51.460;7.276;2023-06-26T01:06:50;8.93;;;6.40;;
18544;SDS011;9402;51.460;7.276;2023-06-26T01:08:52;7.33;;;6.00;;
18544;SDS011;9402;51.460;7.276;2023-06-26T01:10:53;9.47;;;6.00;;
18544;SDS011;9402;51.460;7.276;2023-06-26T01:12:55;8.37;;;5.80;;
18544;SDS011;9402;51.460;7.276;2023-06-26T01:14:59;7.70;;;6.60;;
18544;SDS011;9402;51.460;7.276;2023-06-26T01:17:01;7.77;;;5.90;;
18544;SDS011;9402;51.460;7.276;2023-06-26T01:19:04;7.77;;;6.00;;
18544;SDS011;9402;51.460;7.276;2023-06-26T01:21:07;7.93;;;6.23;;
18544;SDS011;9402;51.460;7.276;2023-06-26T01:23:12;11.90;;;5.67;;
18544;SDS011;9402;51.460;7.276;2023-06-26T01:25:18;6.60;;;6.00;;
18544;SDS011;9402;51.460;7.276;2023-06-26T01:27:25;6.63;;;5.80;;
18544;SDS011;9402;51.460;7.276;2023-06-26T01:29:27;8.43;;;6.27;;
18544;SDS011;9402;51.460;7.276;2023-06-26T01:31:30;11.47;;;6.37;;
18544;SDS011;9402;51.460;7.276;2023-06-26T01:33:32;6.50;;;5.80;;
18544;SDS011;9402;51.460;7.276;2023-06-26T01:35:35;6.73;;;5.33;;
18544;SDS011;9402;51.460;7.276;2023-06-26T01:37:36;7.33;;;6.00;;
18544;SDS011;9402;51.460;7.276;2023-06-26T01:39:38;7.77;;;6.20;;
18544;SDS011;9402;51.460;7.276;2023-06-26T01:41:39;8.03;;;6.07;;
18544;SDS011;9402;51.460;7.276;2023-06-26T01:43:50;6.40;;;5.80;;
18544;SDS011;9402;51.460;7.276;2023-06-26T01:46:03;8.10;;;6.43;;
18544;SDS011;9402;51.460;7.276;2023-06-26T01:48:06;8.07;;;6.07;;
18544;SDS011;9402;51.460;7.276;2023-06-26T01:50:10;9.37;;;6.33;;
18544;SDS011;9402;51.460;7.276;2023-06-26T01:52:16;6.87;;;5.73;;
18544;SDS011;9402;51.460;7.276;2023-06-26T01:54:21;6.57;;;5.30;;
18544;SDS011;9402;51.460;7.276;2023-06-26T01:56:25;6.40;;;5.60;;
18544;SDS011;9402;51.460;7.276;2023-06-26T01:58:27;6.07;;;5.30;;
18544;SDS011;9402;51.460;7.276;2023-06-26T02:00:31;7.53;;;5.97;;
18544;SDS011;9402;51.460;7.276;2023-06-26T02:02:33;6.73;;;6.03;;
18544;SDS011;9402;51.460;7.276;2023-06-26T02:04:35;6.83;;;6.20;;
18544;SDS011;9402;51.460;7.276;2023-06-26T02:06:37;7.10;;;6.20;;
18544;SDS011;9402;51.460;7.276;2023-06-26T02:08:39;5.27;;;4.73;;
18544;SDS011;9402;51.460;7.276;2023-06-26T02:10:40;7.60;;;5.73;;
18544;SDS011;9402;51.460;7.276;2023-06-26T02:12:42;6.23;;;5.63;;
18544;SDS011;9402;51.460;7.276;2023-06-26T02:14:44;8.47;;;6.50;;
18544;SDS011;9402;51.460;7.276;2023-06-26T02:16:47;11.30;;;6.30;;
18544;SDS011;9402;51.460;7.276;2023-06-26T02:18:48;7.60;;;6.57;;
18544;SDS011;9402;51.460;7.276;2023-06-26T02:20:50;6.93;;;5.83;;
18544;SDS011;9402;51.460;7.276;2023-06-26T02:22:51;7.20;;;6.30;;
18544;SDS011;9402;51.460;7.276;2023-06-26T02:24:53;7.97;;;7.10;;
18544;SDS011;9402;51.460;7.276;2023-06-26T02:26:54;7.20;;;6.50;;
18544;SDS011;9402;51.460;7.276;2023-06-26T02:28:56;7.60;;;6.27;;
18544;SDS011;9402;51.460;7.276;2023-06-26T02:30:57;7.30;;;5.80;;
18544;SDS011;9402;51.460;7.276;2023-06-26T02:33:00;7.80;;;6.57;;
18544;SDS011;9402;51.460;7.276;2023-06-26T02:35:02;7.27;;;6.17;;
18544;SDS011;9402;51.460;7.276;2023-06-26T02:37:04;11.17;;;6.50;;
18544;SDS011;9402;51.460;7.276;2023-06-26T02:39:06;6.23;;;5.30;;
18544;SDS011;9402;51.460;7.276;2023-06-26T02:41:08;7.30;;;5.90;;
18544;SDS011;9402;51.460;7.276;2023-06-26T02:43:09;6.83;;;5.80;;
18544;SDS011;9402;51.460;7.276;2023-06-26T02:45:11;7.77;;;6.30;;
18544;SDS011;9402;51.460;7.276;2023-06-26T02:47:12;6.77;;;5.80;;
18544;SDS011;9402;51.460;7.276;2023-06-26T02:49:15;11.20;;;6.50;;
18544;SDS011;9402;51.460;7.276;2023-06-26T02:51:17;7.57;;;5.20;;
18544;SDS011;9402;51.460;7.276;2023-06-26T02:53:18;6.13;;;5.50;;
18544;SDS011;9402;51.460;7.276;2023-06-26T02:55:20;6.63;;;5.70;;
18544;SDS011;9402;51.460;7.276;2023-06-26T02:57:22;8.93;;;6.10;;
18544;SDS011;9402;51.460;7.276;2023-06-26T02:59:23;8.20;;;6.30;;
18544;SDS011;9402;51.460;7.276;2023-06-26T03:01:25;7.70;;;6.10;;
18544;SDS011;9402;51.460;7.276;2023-06-26T03:03:26;7.13;;;6.27;;
18544;SDS011;9402;51.460;7.276;2023-06-26T03:05:29;7.90;;;6.03;;
18544;SDS011;9402;51.460;7.276;2023-06-26T03:07:31;7.27;;;5.80;;
18544;SDS011;9402;51.460;7.276;2023-06-26T03:09:32;7.43;;;6.27;;
18544;SDS011;9402;51.460;7.276;2023-06-26T03:11:34;6.83;;;5.67;;
18544;SDS011;9402;51.460;7.276;2023-06-26T03:13:36;8.73;;;6.80;;
18544;SDS011;9402;51.460;7.276;2023-06-26T03:15:38;7.20;;;6.00;;
18544;SDS011;9402;51.460;7.276;2023-06-26T03:17:39;8.00;;;6.10;;
18544;SDS011;9402;51.460;7.276;2023-06-26T03:19:41;10.40;;;6.40;;
18544;SDS011;9402;51.460;7.276;2023-06-26T03:21:44;6.97;;;5.90;;
18544;SDS011;9402;51.460;7.276;2023-06-26T03:23:45;9.37;;;6.53;;
18544;SDS011;9402;51.460;7.276;2023-06-26T03:25:47;6.13;;;5.50;;
18544;SDS011;9402;51.460;7.276;2023-06-26T03:27:49;11.17;;;7.20;;
18544;SDS011;9402;51.460;7.276;2023-06-26T03:29:51;6.83;;;5.80;;
18544;SDS011;9402;51.460;7.276;2023-06-26T03:31:53;8.23;;;6.87;;
18544;SDS011;9402;51.460;7.276;2023-06-26T03:33:54;10.20;;;6.13;;
18544;SDS011;9402;51.460;7.276;2023-06-26T03:35:56;8.60;;;6.70;;
18544;SDS011;9402;51.460;7.276;2023-06-26T03:38:00;6.50;;;5.77;;
18544;SDS011;9402;51.460;7.276;2023-06-26T03:40:02;10.90;;;5.87;;
18544;SDS011;9402;51.460;7.276;2023-06-26T03:42:05;9.07;;;5.67;;
18544;SDS011;9402;51.460;7.276;2023-06-26T03:44:07;6.20;;;5.50;;
18544;SDS011;9402;51.460;7.276;2023-06-26T03:46:09;13.90;;;6.23;;
18544;SDS011;9402;51.460;7.276;2023-06-26T03:48:10;6.77;;;6.10;;
18544;SDS011;9402;51.460;7.276;2023-06-26T03:50:12;7.77;;;6.50;;
18544;SDS011;9402;51.460;7.276;2023-06-26T03:52:13;7.13;;;6.40;;
18544;SDS011;9402;51.460;7.276;2023-06-26T03:54:16;11.40;;;6.53;;
18544;SDS011;9402;51.460;7.276;2023-06-26T03:56:18;7.77;;;6.17;;
18544;SDS011;9402;51.460;7.276;2023-06-26T03:58:19;8.23;;;6.07;;
18544;SDS011;9402;51.460;7.276;2023-06-26T04:00:21;9.13;;;6.80;;
18544;SDS011;9402;51.460;7.276;2023-06-26T04:02:23;8.20;;;5.90;;
18544;SDS011;9402;51.460;7.276;2023-06-26T04:04:24;6.43;;;5.77;;
18544;SDS011;9402;51.460;7.276;2023-06-26T04:06:26;7.50;;;6.20;;
18544;SDS011;9402;51.460;7.276;2023-06-26T04:08:27;7.73;;;6.10;;
18544;SDS011;9402;51.460;7.276;2023-06-26T04:10:30;7.70;;;6.40;;
18544;SDS011;9402;51.460;7.276;2023-06-26T04:12:32;9.70;;;6.10;;
18544;SDS011;9402;51.460;7.276;2023-06-26T04:14:33;7.63;;;5.87;;
18544;SDS011;9402;51.460;7.276;2023-06-26T04:16:35;9.00;;;6.40;;
18544;SDS011;9402;51.460;7.276;2023-06-26T04:18:37;8.50;;;6.50;;
18544;SDS011;9402;51.460;7.276;2023-06-26T04:20:38;17.30;;;6.50;;
18544;SDS011;9402;51.460;7.276;2023-06-26T04:22:40;7.47;;;6.40;;
18544;SDS011;9402;51.460;7.276;2023-06-26T04:24:42;6.60;;;5.77;;
18544;SDS011;9402;51.460;7.276;2023-06-26T04:26:47;14.03;;;6.20;;
18544;SDS011;9402;51.460;7.276;2023-06-26T04:28:49;9.20;;;6.83;;
18544;SDS011;9402;51.460;7.276;2023-06-26T04:30:50;11.03;;;6.07;;
18544;SDS011;9402;51.460;7.276;2023-06-26T04:32:52;6.00;;;5.40;;
18544;SDS011;9402;51.460;7.276;2023-06-26T04:34:53;6.77;;;5.80;;
18544;SDS011;9402;51.460;7.276;2023-06-26T04:36:55;7.47;;;5.90;;
18544;SDS011;9402;51.460;7.276;2023-06-26T04:38:56;15.50;;;6.87;;
18544;SDS011;9402;51.460;7.276;2023-06-26T04:40:58;8.50;;;6.33;;
18544;SDS011;9402;51.460;7.276;2023-06-26T04:43:01;6.97;;;5.33;;
18544;SDS011;9402;51.460;7.276;2023-06-26T04:45:03;9.47;;;6.17;;
18544;SDS011;9402;51.460;7.276;2023-06-26T04:47:05;7.37;;;5.90;;
18544;SDS011;9402;51.460;7.276;2023-06-26T04:49:07;10.00;;;6.73;;
18544;SDS011;9402;51.460;7.276;2023-06-26T04:51:08;10.10;;;5.93;;
18544;SDS011;9402;51.460;7.276;2023-06-26T04:53:10;8.00;;;5.80;;
18544;SDS011;9402;51.460;7.276;2023-06-26T04:55:12;7.77;;;5.93;;
18544;SDS011;9402;51.460;7.276;2023-06-26T04:57:13;9.10;;;6.27;;
18544;SDS011;9402;51.460;7.276;2023-06-26T04:59:16;9.27;;;5.77;;
18544;SDS011;9402;51.460;7.276;2023-06-26T05:01:18;10.10;;;5.87;;
18544;SDS011;9402;51.460;7.276;2023-06-26T05:03:20;9.93;;;6.50;;
18544;SDS011;9402;51.460;7.276;2023-06-26T05:05:23;8.90;;;6.43;;
18544;SDS011;9402;51.460;7.276;2023-06-26T05:07:24;7.43;;;6.23;;
18544;SDS011;9402;51.460;7.276;2023-06-26T05:09:26;9.20;;;5.77;;
18544;SDS011;9402;51.460;7.276;2023-06-26T05:11:27;13.70;;;6.40;;
18544;SDS011;9402;51.460;7.276;2023-06-26T05:13:29;16.83;;;7.60;;
18544;SDS011;9402;51.460;7.276;2023-06-26T05:15:32;9.73;;;5.67;;
18544;SDS011;9402;51.460;7.276;2023-06-26T05:17:33;8.70;;;6.50;;
18544;SDS011;9402;51.460;7.276;2023-06-26T05:19:35;9.70;;;6.20;;
18544;SDS011;9402;51.460;7.276;2023-06-26T05:21:36;9.33;;;7.07;;
18544;SDS011;9402;51.460;7.276;2023-06-26T05:23:38;9.70;;;6.70;;
18544;SDS011;9402;51.460;7.276;2023-06-26T05:25:40;9.10;;;6.40;;
18544;SDS011;9402;51.460;7.276;2023-06-26T05:27:42;10.47;;;7.10;;
18544;SDS011;9402;51.460;7.276;2023-06-26T05:29:44;10.67;;;6.17;;
18544;SDS011;9402;51.460;7.276;2023-06-26T05:31:48;9.70;;;7.10;;
18544;SDS011;9402;51.460;7.276;2023-06-26T05:33:50;8.57;;;7.40;;
18544;SDS011;9402;51.460;7.276;2023-06-26T05:35:54;8.27;;;6.50;;
18544;SDS011;9402;51.460;7.276;2023-06-26T05:37:57;17.03;;;7.73;;
18544;SDS011;9402;51.460;7.276;2023-06-26T05:40:00;11.93;;;7.00;;
18544;SDS011;9402;51.460;7.276;2023-06-26T05:42:03;7.83;;;7.03;;
18544;SDS011;9402;51.460;7.276;2023-06-26T05:44:05;7.20;;;6.50;;
18544;SDS011;9402;51.460;7.276;2023-06-26T05:46:07;9.63;;;7.03;;
18544;SDS011;9402;51.460;7.276;2023-06-26T05:48:10;10.93;;;7.10;;
18544;SDS011;9402;51.460;7.276;2023-06-26T05:50:12;11.50;;;7.20;;
18544;SDS011;9402;51.460;7.276;2023-06-26T05:52:14;7.47;;;6.47;;
18544;SDS011;9402;51.460;7.276;2023-06-26T05:54:16;11.10;;;7.90;;
18544;SDS011;9402;51.460;7.276;2023-06-26T05:56:19;13.17;;;7.70;;
18544;SDS011;9402;51.460;7.276;2023-06-26T05:58:20;9.33;;;7.37;;
18544;SDS011;9402;51.460;7.276;2023-06-26T06:00:23;12.40;;;8.27;;
18544;SDS011;9402;51.460;7.276;2023-06-26T06:02:26;17.93;;;8.37;;
18544;SDS011;9402;51.460;7.276;2023-06-26T06:04:29;12.13;;;7.77;;
18544;SDS011;9402;51.460;7.276;2023-06-26T06:06:31;13.70;;;7.67;;
18544;SDS011;9402;51.460;7.276;2023-06-26T06:08:32;10.63;;;7.10;;
18544;SDS011;9402;51.460;7.276;2023-06-26T06:10:34;15.00;;;7.17;;
18544;SDS011;9402;51.460;7.276;2023-06-26T06:12:35;14.23;;;7.50;;
18544;SDS011;9402;51.460;7.276;2023-06-26T06:14:37;13.37;;;7.37;;
18544;SDS011;9402;51.460;7.276;2023-06-26T06:16:38;12.53;;;7.03;;
18544;SDS011;9402;51.460;7.276;2023-06-26T06:18:40;18.27;;;7.40;;
18544;SDS011;9402;51.460;7.276;2023-06-26T06:20:43;14.03;;;6.57;;
18544;SDS011;9402;51.460;7.276;2023-06-26T06:22:44;9.60;;;7.20;;
18544;SDS011;9402;51.460;7.276;2023-06-26T06:24:48;12.00;;;6.83;;
18544;SDS011;9402;51.460;7.276;2023-06-26T06:26:50;9.40;;;6.73;;
18544;SDS011;9402;51.460;7.276;2023-06-26T06:28:52;10.30;;;6.27;;
18544;SDS011;9402;51.460;7.276;2023-06-26T06:30:54;10.40;;;6.63;;
18544;SDS011;9402;51.460;7.276;2023-06-26T06:32:55;10.70;;;6.33;;
18544;SDS011;9402;51.460;7.276;2023-06-26T06:34:57;14.50;;;6.10;;
18544;SDS011;9402;51.460;7.276;2023-06-26T06:36:59;10.47;;;6.30;;
18544;SDS011;9402;51.460;7.276;2023-06-26T06:39:01;13.00;;;6.60;;
18544;SDS011;9402;51.460;7.276;2023-06-26T06:41:03;9.60;;;6.13;;
18544;SDS011;9402;51.460;7.276;2023-06-26T06:43:05;12.40;;;5.80;;
18544;SDS011;9402;51.460;7.276;2023-06-26T06:45:07;7.50;;;5.70;;
18544;SDS011;9402;51.460;7.276;2023-06-26T06:47:09;13.47;;;6.37;;
18544;SDS011;9402;51.460;7.276;2023-06-26T06:49:11;11.30;;;5.67;;
18544;SDS011;9402;51.460;7.276;2023-06-26T06:51:12;10.30;;;5.63;;
18544;SDS011;9402;51.460;7.276;2023-06-26T06:53:15;12.70;;;5.87;;
18544;SDS011;9402;51.460;7.276;2023-06-26T06:55:17;11.87;;;6.53;;
18544;SDS011;9402;51.460;7.276;2023-06-26T06:57:18;8.53;;;5.90;;
18544;SDS011;9402;51.460;7.276;2023-06-26T06:59:20;11.87;;;6.33;;
18544;SDS011;9402;51.460;7.276;2023-06-26T07:01:22;10.80;;;6.27;;
18544;SDS011;9402;51.460;7.276;2023-06-26T07:03:23;25.03;;;6.30;;
18544;SDS011;9402;51.460;7.276;2023-06-26T07:05:25;11.53;;;6.90;;
18544;SDS011;9402;51.460;7.276;2023-06-26T07:07:28;12.37;;;7.67;;
18544;SDS011;9402;51.460;7.276;2023-06-26T07:09:31;10.63;;;6.30;;
18544;SDS011;9402;51.460;7.276;2023-06-26T07:11:33;11.90;;;5.83;;
18544;SDS011;9402;51.460;7.276;2023-06-26T07:13:34;11.37;;;5.33;;
18544;SDS011;9402;51.460;7.276;2023-06-26T07:15:36;11.23;;;6.07;;
18544;SDS011;9402;51.460;7.276;2023-06-26T07:17:38;11.13;;;5.57;;
18544;SDS011;9402;51.460;7.276;2023-06-26T07:19:39;15.57;;;6.73;;
18544;SDS011;9402;51.460;7.276;2023-06-26T07:21:41;18.30;;;6.90;;
18544;SDS011;9402;51.460;7.276;2023-06-26T07:23:44;12.67;;;6.33;;
18544;SDS011;9402;51.460;7.276;2023-06-26T07:25:47;21.33;;;6.60;;
18544;SDS011;9402;51.460;7.276;2023-06-26T07:27:49;54.00;;;13.30;;
18544;SDS011;9402;51.460;7.276;2023-06-26T07:29:50;23.27;;;7.93;;
18544;SDS011;9402;51.460;7.276;2023-06-26T07:31:52;11.60;;;6.20;;
18544;SDS011;9402;51.460;7.276;2023-06-26T07:33:53;16.43;;;7.20;;
18544;SDS011;9402;51.460;7.276;2023-06-26T07:35:55;9.73;;;6.37;;
18544;SDS011;9402;51.460;7.276;2023-06-26T07:37:57;19.43;;;6.73;;
18544;SDS011;9402;51.460;7.276;2023-06-26T07:39:58;24.80;;;7.67;;
18544;SDS011;9402;51.460;7.276;2023-06-26T07:42:01;11.13;;;6.83;;
18544;SDS011;9402;51.460;7.276;2023-06-26T07:44:03;24.40;;;9.60;;
18544;SDS011;9402;51.460;7.276;2023-06-26T07:46:04;15.83;;;8.40;;
18544;SDS011;9402;51.460;7.276;2023-06-26T07:48:06;16.90;;;7.97;;
18544;SDS011;9402;51.460;7.276;2023-06-26T07:50:09;30.30;;;8.90;;
18544;SDS011;9402;51.460;7.276;2023-06-26T07:52:10;16.20;;;7.33;;
18544;SDS011;9402;51.460;7.276;2023-06-26T07:54:12;31.17;;;7.63;;
18544;SDS011;9402;51.460;7.276;2023-06-26T07:56:14;19.43;;;8.07;;
18544;SDS011;9402;51.460;7.276;2023-06-26T07:58:17;25.33;;;8.30;;
18544;SDS011;9402;51.460;7.276;2023-06-26T08:00:18;10.97;;;6.27;;
18544;SDS011;9402;51.460;7.276;2023-06-26T08:02:20;17.87;;;8.47;;
18544;SDS011;9402;51.460;7.276;2023-06-26T08:04:23;18.57;;;7.03;;
18544;SDS011;9402;51.460;7.276;2023-06-26T08:06:26;24.60;;;8.10;;
18544;SDS011;9402;51.460;7.276;2023-06-26T08:08:27;13.07;;;7.70;;
18544;SDS011;9402;51.460;7.276;2023-06-26T08:10:29;11.93;;;7.43;;
18544;SDS011;9402;51.460;7.276;2023-06-26T08:12:30;10.83;;;6.77;;
18544;SDS011;9402;51.460;7.276;2023-06-26T08:14:33;17.03;;;6.43;;
18544;SDS011;9402;51.460;7.276;2023-06-26T08:16:35;14.47;;;6.70;;
18544;SDS011;9402;51.460;7.276;2023-06-26T08:18:36;13.70;;;7.67;;
18544;SDS011;9402;51.460;7.276;2023-06-26T08:20:38;18.13;;;7.47;;
18544;SDS011;9402;51.460;7.276;2023-06-26T08:22:40;31.60;;;9.73;;
18544;SDS011;9402;51.460;7.276;2023-06-26T08:24:41;11.23;;;6.67;;
18544;SDS011;9402;51.460;7.276;2023-06-26T08:26:44;17.63;;;7.43;;
18544;SDS011;9402;51.460;7.276;2023-06-26T08:28:46;19.23;;;6.97;;
18544;SDS011;9402;51.460;7.276;2023-06-26T08:30:49;18.40;;;7.93;;
18544;SDS011;9402;51.460;7.276;2023-06-26T08:32:50;20.73;;;6.87;;
18544;SDS011;9402;51.460;7.276;2023-06-26T08:34:52;18.63;;;7.47;;
18544;SDS011;9402;51.460;7.276;2023-06-26T08:36:53;23.40;;;8.83;;
18544;SDS011;9402;51.460;7.276;2023-06-26T08:38:55;14.73;;;9.20;;
18544;SDS011;9402;51.460;7.276;2023-06-26T08:40:57;19.37;;;8.57;;
18544;SDS011;9402;51.460;7.276;2023-06-26T08:42:58;26.53;;;10.00;;
18544;SDS011;9402;51.460;7.276;2023-06-26T08:45:00;21.20;;;9.80;;
18544;SDS011;9402;51.460;7.276;2023-06-26T08:47:03;15.30;;;8.97;;
18544;SDS011;9402;51.460;7.276;2023-06-26T08:49:12;19.03;;;8.00;;
18544;SDS011;9402;51.460;7.276;2023-06-26T08:51:16;17.00;;;8.03;;
18544;SDS011;9402;51.460;7.276;2023-06-26T08:53:21;23.07;;;9.97;;
18544;SDS011;9402;51.460;7.276;2023-06-26T08:55:27;17.37;;;10.60;;
18544;SDS011;9402;51.460;7.276;2023-06-26T08:57:30;20.10;;;9.10;;
18544;SDS011;9402;51.460;7.276;2023-06-26T08:59:32;22.40;;;10.10;;
18544;SDS011;9402;51.460;7.276;2023-06-26T09:01:33;16.13;;;9.23;;
18544;SDS011;9402;51.460;7.276;2023-06-26T09:03:36;20.87;;;10.20;;
18544;SDS011;9402;51.460;7.276;2023-06-26T09:05:38;14.80;;;8.87;;
18544;SDS011;9402;51.460;7.276;2023-06-26T09:07:39;14.77;;;8.53;;
18544;SDS011;9402;51.460;7.276;2023-06-26T09:09:41;20.03;;;8.80;;
18544;SDS011;9402;51.460;7.276;2023-06-26T09:11:42;16.77;;;9.17;;
18544;SDS011;9402;51.460;7.276;2023-06-26T09:13:44;14.77;;;9.13;;
18544;SDS011;9402;51.460;7.276;2023-06-26T09:15:47;17.47;;;8.10;;
18544;SDS011;9402;51.460;7.276;2023-06-26T09:17:49;24.30;;;8.27;;
18544;SDS011;9402;51.460;7.276;2023-06-26T09:19:52;24.57;;;8.43;;
18544;SDS011;9402;51.460;7.276;2023-06-26T09:21:54;23.90;;;8.33;;
18544;SDS011;9402;51.460;7.276;2023-06-26T09:23:55;16.87;;;8.30;;
18544;SDS011;9402;51.460;7.276;2023-06-26T09:25:57;24.50;;;8.10;;
18544;SDS011;9402;51.460;7.276;2023-06-26T09:27:58;18.53;;;8.50;;
18544;SDS011;9402;51.460;7.276;2023-06-26T09:30:01;16.47;;;7.43;;
18544;SDS011;9402;51.460;7.276;2023-06-26T09:32:03;14.83;;;7.23;;
18544;SDS011;9402;51.460;7.276;2023-06-26T09:34:05;14.77;;;7.10;;
18544;SDS011;9402;51.460;7.276;2023-06-26T09:36:09;17.23;;;7.67;;
18544;SDS011;9402;51.460;7.276;2023-06-26T09:38:20;16.40;;;8.67;;
18544;SDS011;9402;51.460;7.276;2023-06-26T09:40:22;17.47;;;8.90;;
18544;SDS011;9402;51.460;7.276;2023-06-26T09:42:24;15.27;;;8.47;;
18544;SDS011;9402;51.460;7.276;2023-06-26T09:44:25;17.80;;;7.87;;
18544;SDS011;9402;51.460;7.276;2023-06-26T09:46:27;15.37;;;7.13;;
18544;SDS011;9402;51.460;7.276;2023-06-26T09:48:29;16.10;;;6.30;;
18544;SDS011;9402;51.460;7.276;2023-06-26T09:50:32;38.37;;;8.33;;
18544;SDS011;9402;51.460;7.276;2023-06-26T09:52:39;25.57;;;6.83;;
18544;SDS011;9402;51.460;7.276;2023-06-26T09:54:42;15.97;;;6.70;;
18544;SDS011;9402;51.460;7.276;2023-06-26T09:56:45;17.57;;;6.93;;
18544;SDS011;9402;51.460;7.276;2023-06-26T09:58:46;15.13;;;5.87;;
18544;SDS011;9402;51.460;7.276;2023-06-26T10:00:48;13.50;;;6.40;;
18544;SDS011;9402;51.460;7.276;2023-06-26T10:02:50;12.40;;;5.50;;
18544;SDS011;9402;51.460;7.276;2023-06-26T10:04:52;20.23;;;6.07;;
18544;SDS011;9402;51.460;7.276;2023-06-26T10:06:54;14.00;;;6.17;;
18544;SDS011;9402;51.460;7.276;2023-06-26T10:08:59;12.57;;;6.20;;
18544;SDS011;9402;51.460;7.276;2023-06-26T10:11:01;14.23;;;6.53;;
18544;SDS011;9402;51.460;7.276;2023-06-26T10:13:04;8.03;;;5.13;;
18544;SDS011;9402;51.460;7.276;2023-06-26T10:15:08;9.80;;;5.07;;
18544;SDS011;9402;51.460;7.276;2023-06-26T10:17:13;21.57;;;5.70;;
18544;SDS011;9402;51.460;7.276;2023-06-26T10:19:18;12.40;;;5.80;;
18544;SDS011;9402;51.460;7.276;2023-06-26T10:21:24;22.30;;;6.57;;
18544;SDS011;9402;51.460;7.276;2023-06-26T10:23:27;42.27;;;8.07;;
18544;SDS011;9402;51.460;7.276;2023-06-26T10:25:30;30.73;;;7.30;;
18544;SDS011;9402;51.460;7.276;2023-06-26T10:27:33;16.40;;;7.20;;
18544;SDS011;9402;51.460;7.276;2023-06-26T10:29:38;10.47;;;5.37;;
18544;SDS011;9402;51.460;7.276;2023-06-26T10:31:40;27.53;;;6.37;;
18544;SDS011;9402;51.460;7.276;2023-06-26T10:33:43;110.03;;;10.03;;
18544;SDS011;9402;51.460;7.276;2023-06-26T10:35:45;18.47;;;4.80;;
18544;SDS011;9402;51.460;7.276;2023-06-26T10:37:47;12.60;;;4.60;;
18544;SDS011;9402;51.460;7.276;2023-06-26T10:39:50;12.23;;;3.97;;
18544;SDS011;9402;51.460;7.276;2023-06-26T10:41:57;13.20;;;4.07;;
18544;SDS011;9402;51.460;7.276;2023-06-26T10:44:10;12.13;;;3.93;;
18544;SDS011;9402;51.460;7.276;2023-06-26T10:46:13;12.33;;;3.77;;
18544;SDS011;9402;51.460;7.276;2023-06-26T10:48:16;9.70;;;4.13;;
18544;SDS011;9402;51.460;7.276;2023-06-26T10:50:18;13.37;;;4.50;;
18544;SDS011;9402;51.460;7.276;2023-06-26T10:52:21;12.93;;;4.57;;
18544;SDS011;9402;51.460;7.276;2023-06-26T10:54:22;10.40;;;4.27;;
18544;SDS011;9402;51.460;7.276;2023-06-26T10:56:43;6.67;;;4.10;;
18544;SDS011;9402;51.460;7.276;2023-06-26T10:58:47;10.83;;;4.40;;
18544;SDS011;9402;51.460;7.276;2023-06-26T11:00:49;13.33;;;3.83;;
18544;SDS011;9402;51.460;7.276;2023-06-26T11:02:51;13.73;;;5.23;;
18544;SDS011;9402;51.460;7.276;2023-06-26T11:04:53;9.70;;;4.27;;
18544;SDS011;9402;51.460;7.276;2023-06-26T11:07:14;10.90;;;3.87;;
18544;SDS011;9402;51.460;7.276;2023-06-26T11:09:17;10.87;;;3.53;;
18544;SDS011;9402;51.460;7.276;2023-06-26T11:11:54;5.20;;;2.93;;
18544;SDS011;9402;51.460;7.276;2023-06-26T11:13:59;9.93;;;3.70;;
18544;SDS011;9402;51.460;7.276;2023-06-26T11:16:01;8.00;;;3.47;;
18544;SDS011;9402;51.460;7.276;2023-06-26T11:18:03;6.43;;;2.97;;
18544;SDS011;9402;51.460;7.276;2023-06-26T11:20:05;7.63;;;3.37;;
18544;SDS011;9402;51.460;7.276;2023-06-26T11:22:08;8.90;;;3.80;;
18544;SDS011;9402;51.460;7.276;2023-06-26T11:24:11;12.70;;;3.70;;
18544;SDS011;9402;51.460;7.276;2023-06-26T11:26:14;12.03;;;3.80;;
18544;SDS011;9402;51.460;7.276;2023-06-26T11:28:16;13.20;;;4.07;;
18544;SDS011;9402;51.460;7.276;2023-06-26T11:30:23;10.27;;;3.57;;
18544;SDS011;9402;51.460;7.276;2023-06-26T11:32:26;13.43;;;4.53;;
18544;SDS011;9402;51.460;7.276;2023-06-26T11:34:32;6.63;;;3.60;;
18544;SDS011;9402;51.460;7.276;2023-06-26T11:36:35;11.97;;;4.17;;
18544;SDS011;9402;51.460;7.276;2023-06-26T11:38:37;8.37;;;3.50;;
18544;SDS011;9402;51.460;7.276;2023-06-26T11:40:38;9.53;;;3.70;;
18544;SDS011;9402;51.460;7.276;2023-06-26T11:42:40;8.87;;;4.03;;
18544;SDS011;9402;51.460;7.276;2023-06-26T11:44:42;27.93;;;7.30;;
18544;SDS011;9402;51.460;7.276;2023-06-26T11:46:45;32.73;;;6.63;;
18544;SDS011;9402;51.460;7.276;2023-06-26T11:48:48;26.70;;;4.60;;
18544;SDS011;9402;51.460;7.276;2023-06-26T11:50:50;8.57;;;3.00;;
18544;SDS011;9402;51.460;7.276;2023-06-26T11:52:53;7.40;;;2.80;;
18544;SDS011;9402;51.460;7.276;2023-06-26T11:54:55;18.10;;;3.93;;
18544;SDS011;9402;51.460;7.276;2023-06-26T11:56:57;10.63;;;2.50;;
18544;SDS011;9402;51.460;7.276;2023-06-26T11:59:00;6.97;;;2.77;;
18544;SDS011;9402;51.460;7.276;2023-06-26T12:01:03;7.57;;;2.10;;
18544;SDS011;9402;51.460;7.276;2023-06-26T12:03:06;10.97;;;2.53;;
18544;SDS011;9402;51.460;7.276;2023-06-26T12:05:07;4.00;;;2.10;;
18544;SDS011;9402;51.460;7.276;2023-06-26T12:07:09;2.80;;;1.40;;
18544;SDS011;9402;51.460;7.276;2023-06-26T12:09:11;5.07;;;2.20;;
18544;SDS011;9402;51.460;7.276;2023-06-26T12:11:14;11.57;;;2.90;;
18544;SDS011;9402;51.460;7.276;2023-06-26T12:13:16;6.80;;;2.13;;
18544;SDS011;9402;51.460;7.276;2023-06-26T12:15:17;8.83;;;2.10;;
18544;SDS011;9402;51.460;7.276;2023-06-26T12:17:21;10.70;;;2.30;;
18544;SDS011;9402;51.460;7.276;2023-06-26T12:19:25;7.33;;;2.10;;
18544;SDS011;9402;51.460;7.276;2023-06-26T12:21:27;11.27;;;1.87;;
18544;SDS011;9402;51.460;7.276;2023-06-26T12:23:32;3.37;;;1.80;;
18544;SDS011;9402;51.460;7.276;2023-06-26T12:25:36;3.57;;;2.00;;